createdAt,value
2022-08-27T00:01:36.231Z,93.45
2022-08-27T00:06:43.852Z,93.44001
2022-08-27T00:11:52.208Z,93.4
2022-08-27T00:17:00.381Z,93.38
2022-08-27T00:22:07.578Z,93.36
2022-08-27T00:27:15.493Z,93.47
2022-08-27T00:32:22.700Z,93.53
2022-08-27T00:37:30.839Z,93.58001
2022-08-27T00:42:38.328Z,93.62
2022-08-27T00:47:47.280Z,93.66
2022-08-27T00:52:55.668Z,93.72001
2022-08-27T00:58:02.044Z,93.7
2022-08-27T01:03:10.345Z,93.73
2022-08-27T01:08:18.644Z,93.72001
2022-08-27T01:13:26.945Z,93.67
2022-08-27T01:18:35.031Z,93.72001
2022-08-27T01:23:43.486Z,93.68
2022-08-27T01:28:51.268Z,93.68
2022-08-27T01:33:59.700Z,93.68
2022-08-27T01:39:07.443Z,93.72001
2022-08-27T01:44:15.299Z,93.88
2022-08-27T01:49:22.856Z,93.98001
2022-08-27T01:54:30.647Z,94.00001
2022-08-27T01:59:37.816Z,94.01999
2022-08-27T02:04:45.693Z,94.04
2022-08-27T02:09:53.025Z,94.07001
2022-08-27T02:15:01.204Z,94.12001
2022-08-27T02:20:09.174Z,94.18
2022-08-27T02:25:16.532Z,94.28
2022-08-27T02:30:23.825Z,94.32
2022-08-27T02:35:32.161Z,94.34
2022-08-27T02:40:37.970Z,94.40001
2022-08-27T02:45:45.234Z,94.44
2022-08-27T02:50:51.881Z,94.39
2022-08-27T02:56:00.081Z,94.43
2022-08-27T03:01:06.771Z,94.43
2022-08-27T03:06:13.977Z,94.45
2022-08-27T03:11:21.291Z,94.45
2022-08-27T03:16:29.310Z,94.47001
2022-08-27T03:21:35.594Z,94.47001
2022-08-27T03:26:42.771Z,94.45
2022-08-27T03:31:49.996Z,94.45
2022-08-27T03:36:57.269Z,94.48001
2022-08-27T03:42:06.159Z,94.52
2022-08-27T03:47:12.961Z,94.45
2022-08-27T03:52:21.332Z,94.44
2022-08-27T03:57:29.818Z,94.58
2022-08-27T04:02:37.915Z,94.57
2022-08-27T04:07:44.859Z,94.54
2022-08-27T04:12:52.950Z,94.45
2022-08-27T04:18:01.051Z,94.3
2022-08-27T04:23:23.759Z,94.34
2022-08-27T04:28:31.957Z,94.62001
2022-08-27T04:33:40.219Z,94.7
2022-08-27T04:38:47.642Z,94.64
2022-08-27T04:43:55.100Z,93.38
2022-08-27T04:49:03.136Z,93.04
2022-08-27T04:54:09.495Z,92.75001
2022-08-27T04:59:17.407Z,92.6
2022-08-27T05:04:24.758Z,92.64
2022-08-27T05:09:31.740Z,92.64
2022-08-27T05:14:38.936Z,92.66001
2022-08-27T05:19:47.926Z,92.66001
2022-08-27T05:24:55.281Z,92.72
2022-08-27T05:30:09.364Z,92.80001
2022-08-27T05:35:16.057Z,92.9
2022-08-27T05:40:23.866Z,93.02
2022-08-27T05:45:32.393Z,93.13
2022-08-27T05:50:39.572Z,93.22001
2022-08-27T05:55:47.916Z,93.24
2022-08-27T06:00:56.027Z,93.33
2022-08-27T06:06:03.525Z,93.36
2022-08-27T06:11:10.933Z,93.4
2022-08-27T06:16:18.204Z,93.38
2022-08-27T06:21:25.406Z,93.42
2022-08-27T06:26:33.552Z,93.46
2022-08-27T06:31:40.454Z,93.5
2022-08-27T06:36:48.242Z,93.55
2022-08-27T06:41:56.414Z,93.58001
2022-08-27T06:47:04.408Z,93.6
2022-08-27T06:52:11.175Z,93.63
2022-08-27T06:57:18.497Z,93.66
2022-08-27T07:02:26.646Z,93.68
2022-08-27T07:07:34.007Z,93.69
2022-08-27T07:12:42.363Z,93.73
2022-08-27T07:17:49.675Z,93.73
2022-08-27T07:22:58.067Z,93.79001
2022-08-27T07:28:06.291Z,93.84
2022-08-27T07:33:14.965Z,93.95
2022-08-27T07:38:23.163Z,94.04
2022-08-27T07:43:31.305Z,78.73001
2022-08-27T07:48:43.183Z,74.07
2022-08-27T07:53:51.509Z,67.79
2022-08-27T07:58:59.174Z,60.95
2022-08-27T08:04:05.969Z,62.07
2022-08-27T08:09:13.856Z,60.34
2022-08-27T08:14:21.693Z,63.64
2022-08-27T08:19:29.236Z,66.84
2022-08-27T08:24:36.091Z,63.28
2022-08-27T08:29:44.467Z,58.12
2022-08-27T08:34:52.379Z,58.65
2022-08-27T08:40:00.252Z,56.37
2022-08-27T08:45:08.957Z,53.0
2022-08-27T08:50:15.234Z,55.76
2022-08-27T08:55:22.296Z,54.21
2022-08-27T09:00:30.473Z,56.34
2022-08-27T09:05:38.134Z,60.31
2022-08-27T09:10:44.865Z,63.5
2022-08-27T09:15:51.900Z,65.96
2022-08-27T09:20:59.140Z,64.44
2022-08-27T09:26:07.591Z,64.9
2022-08-27T09:31:14.785Z,62.46
2022-08-27T09:36:22.625Z,56.71
2022-08-27T09:41:29.819Z,55.32
2022-08-27T09:46:36.379Z,57.58
2022-08-27T09:51:43.579Z,60.59
2022-08-27T09:56:51.926Z,58.9
2022-08-27T10:01:59.344Z,53.32
2022-08-27T10:07:07.127Z,51.51
2022-08-27T10:12:14.954Z,47.91
2022-08-27T10:17:23.174Z,44.66
2022-08-27T10:22:30.619Z,43.62
2022-08-27T10:27:45.099Z,44.14
2022-08-27T10:32:52.028Z,46.59
2022-08-27T10:38:00.864Z,44.2
2022-08-27T10:43:08.960Z,41.76
2022-08-27T10:48:16.222Z,40.54
2022-08-27T10:53:24.660Z,39.36
2022-08-27T10:58:33.687Z,39.25
2022-08-27T11:03:41.778Z,39.9
2022-08-27T11:08:48.888Z,40.08
2022-08-27T11:13:57.623Z,40.3
2022-08-27T11:19:05.814Z,40.7
2022-08-27T11:24:12.385Z,39.23
2022-08-27T11:29:20.626Z,40.11
2022-08-27T11:34:27.672Z,38.17
2022-08-27T11:39:35.256Z,38.85
2022-08-27T11:44:41.815Z,38.51
2022-08-27T11:49:49.146Z,39.5
2022-08-27T11:54:57.212Z,40.93
2022-08-27T12:00:04.540Z,40.5
2022-08-27T12:05:11.895Z,43.47
2022-08-27T12:10:20.322Z,44.34
2022-08-27T12:15:27.916Z,43.34
2022-08-27T12:20:34.249Z,45.36
2022-08-27T12:25:42.007Z,48.48
2022-08-27T12:30:49.482Z,49.78
2022-08-27T12:35:57.659Z,50.01
2022-08-27T12:41:05.499Z,52.0
2022-08-27T12:46:13.343Z,51.98
2022-08-27T12:51:19.897Z,53.23
2022-08-27T12:56:27.096Z,56.11
2022-08-27T13:01:34.303Z,57.7
2022-08-27T13:06:41.594Z,57.99
2022-08-27T13:11:49.390Z,58.7
2022-08-27T13:16:57.517Z,58.03
2022-08-27T13:22:05.013Z,58.22
2022-08-27T13:27:12.886Z,57.31
2022-08-27T13:32:21.233Z,58.83
2022-08-27T13:37:29.180Z,60.12
2022-08-27T13:42:37.019Z,59.74
2022-08-27T13:47:44.729Z,60.56
2022-08-27T13:52:53.210Z,62.73
2022-08-27T13:57:59.257Z,63.58
2022-08-27T14:03:07.788Z,64.03
2022-08-27T14:08:16.203Z,65.6
2022-08-27T14:13:23.667Z,69.73001
2022-08-27T14:18:31.308Z,76.04
2022-08-27T14:23:38.134Z,79.42
2022-08-27T14:28:45.880Z,79.71
2022-08-27T14:33:53.501Z,80.42
2022-08-27T14:39:00.053Z,78.21
2022-08-27T14:44:07.261Z,75.79
2022-08-27T14:49:13.850Z,73.99
2022-08-27T14:54:21.783Z,74.56
2022-08-27T14:59:28.851Z,71.91
2022-08-27T15:04:36.341Z,69.03
2022-08-27T15:09:43.891Z,65.96
2022-08-27T15:14:51.827Z,64.49
2022-08-27T15:19:59.579Z,62.6
2022-08-27T15:25:07.915Z,60.38
2022-08-27T15:30:16.157Z,60.18
2022-08-27T15:35:23.694Z,62.04
2022-08-27T15:40:31.397Z,65.54
2022-08-27T15:45:39.353Z,67.21
2022-08-27T15:50:46.102Z,69.37
2022-08-27T15:55:53.176Z,70.19001
2022-08-27T16:01:01.204Z,71.55
2022-08-27T16:06:09.003Z,73.06
2022-08-27T16:11:16.084Z,73.62
2022-08-27T16:16:25.051Z,74.08
2022-08-27T16:21:33.049Z,74.55
2022-08-27T16:26:40.326Z,74.84
2022-08-27T16:32:42.339Z,74.76
2022-08-27T16:32:43.597Z,74.76
2022-08-27T16:33:18.301Z,74.86
2022-08-27T16:38:25.031Z,75.49
2022-08-27T16:43:32.822Z,76.06
2022-08-27T16:48:40.736Z,76.41
2022-08-27T16:53:48.404Z,75.95
2022-08-27T16:58:56.248Z,76.17
2022-08-27T17:04:03.446Z,76.95
2022-08-27T17:09:11.254Z,77.58
2022-08-27T17:14:18.457Z,77.42
2022-08-27T17:19:25.658Z,77.77
2022-08-27T17:24:34.352Z,77.95
2022-08-27T17:29:41.342Z,77.84
2022-08-27T17:34:49.178Z,78.17
2022-08-27T17:39:56.405Z,78.94001
2022-08-27T17:45:04.980Z,79.7
2022-08-27T17:50:12.113Z,80.16001
2022-08-27T17:55:18.903Z,80.02
2022-08-27T18:00:25.820Z,80.69
2022-08-27T18:05:33.067Z,80.98001
2022-08-27T18:10:40.235Z,81.12
2022-08-27T18:15:48.145Z,81.08001
2022-08-27T18:20:56.131Z,81.21
2022-08-27T18:26:04.742Z,81.58
2022-08-27T18:31:12.368Z,82.04
2022-08-27T18:36:19.542Z,82.66001
2022-08-27T18:41:27.254Z,83.05
2022-08-27T18:46:34.479Z,82.87001
2022-08-27T18:51:42.825Z,82.62
2022-08-27T18:56:50.502Z,82.75001
2022-08-27T19:01:57.361Z,82.87001
2022-08-27T19:07:04.544Z,83.06
2022-08-27T19:12:11.740Z,83.31
2022-08-27T19:17:18.964Z,83.63
2022-08-27T19:22:28.455Z,83.81
2022-08-27T19:27:35.329Z,83.98001
2022-08-27T19:32:43.406Z,84.08
2022-08-27T19:37:51.162Z,83.82
2022-08-27T19:42:58.715Z,84.07001
2022-08-27T19:48:05.988Z,83.99
2022-08-27T19:53:14.152Z,84.33001
2022-08-27T19:58:22.649Z,84.17
2022-08-27T20:03:28.861Z,84.2
2022-08-27T20:08:36.726Z,84.28
2022-08-27T20:18:21.201Z,84.37
2022-08-27T20:23:28.211Z,84.51
2022-08-27T20:28:35.527Z,84.56
2022-08-27T20:33:42.684Z,84.7
2022-08-27T20:38:49.902Z,84.73001
2022-08-27T20:43:57.906Z,84.72
2022-08-27T20:49:05.493Z,84.82
2022-08-27T20:54:14.322Z,84.84
2022-08-27T20:59:22.234Z,84.94
2022-08-27T21:04:29.884Z,84.86
2022-08-27T21:09:37.493Z,84.82
2022-08-27T21:14:45.525Z,85.24
2022-08-27T21:19:54.257Z,85.02
2022-08-27T21:25:00.874Z,85.24
2022-08-27T21:30:08.944Z,85.41
2022-08-27T21:35:16.060Z,85.66001
2022-08-27T21:40:24.462Z,85.81
2022-08-27T21:45:31.738Z,85.93
2022-08-27T21:50:39.020Z,86.08001
2022-08-27T21:55:47.275Z,86.25
2022-08-27T22:00:54.615Z,86.15001
2022-08-27T22:06:02.450Z,86.1
2022-08-27T22:11:10.687Z,86.74
2022-08-27T22:16:18.774Z,86.87
2022-08-27T22:21:25.976Z,86.77
2022-08-27T22:26:33.818Z,86.7
2022-08-27T22:31:41.037Z,87.16001
2022-08-27T22:36:49.494Z,87.18
2022-08-27T22:41:57.335Z,87.3
2022-08-27T22:47:04.539Z,87.44
2022-08-27T22:52:12.255Z,87.61001
2022-08-27T22:57:21.360Z,87.69
2022-08-27T23:02:28.702Z,87.68001
2022-08-27T23:07:37.595Z,87.75001
2022-08-27T23:12:44.542Z,87.58
2022-08-27T23:17:52.625Z,87.61001
2022-08-27T23:22:59.412Z,87.54001
2022-08-27T23:28:06.616Z,87.62
2022-08-27T23:33:14.462Z,87.49
2022-08-27T23:38:22.808Z,87.74
2022-08-27T23:43:30.174Z,87.76999
2022-08-27T23:48:37.369Z,87.83999
2022-08-27T23:53:43.924Z,87.89001
2022-08-27T23:58:51.362Z,87.98
